Time;durP1;ratioP1;P1;durP2;ratioP2;P2;SDS_P1;SDS_P2;PMS_P1;PMS_P2;Temp;Humidity;BMP_temperature;BMP_pressure;BME280_temperature;BME280_humidity;BME280_pressure;Samples;Min_cycle;Max_cycle;Signal;HPM_P1;HPM_P2
2023/02/12 00:02:58;;;;;;;40.80;19.70;;;;;;;3.63;95.78;99795.98;438769;1248;110951;-40
2023/02/12 00:13:06;;;;;;;30.10;21.20;;;;;;;3.63;95.80;99798.80;437503;1259;107846;-38
2023/02/12 00:23:13;;;;;;;44.10;23.10;;;;;;;3.59;95.83;99811.40;437563;1250;99205;-39
2023/02/12 00:33:20;;;;;;;39.80;23.70;;;;;;;3.59;95.84;99811.20;438720;1259;108521;-38
2023/02/12 00:43:27;;;;;;;31.40;20.00;;;;;;;3.60;95.78;99818.11;437925;1251;98002;-40
2023/02/12 00:53:35;;;;;;;42.90;23.90;;;;;;;3.61;95.86;99830.64;438395;1259;111313;-39
2023/02/12 01:03:41;;;;;;;38.70;21.60;;;;;;;3.62;95.99;99849.30;437471;1250;107757;-41
2023/02/12 01:13:49;;;;;;;41.40;20.10;;;;;;;3.61;95.81;99867.13;437510;1259;99182;-39
2023/02/12 01:23:57;;;;;;;37.30;19.60;;;;;;;3.61;95.87;99882.10;437493;1250;108783;-40
2023/02/12 01:34:06;;;;;;;32.50;17.70;;;;;;;3.63;95.92;99890.80;437475;1250;97893;-39
2023/02/12 01:54:24;;;;;;;41.60;18.90;;;;;;;3.55;95.84;99920.79;437476;1250;107512;-39
2023/02/12 02:04:37;;;;;;;40.00;18.80;;;;;;;3.49;95.68;99924.70;437594;1248;98318;-40
2023/02/12 02:14:46;;;;;;;32.80;15.60;;;;;;;3.46;95.83;99933.54;437554;1245;109303;-38
2023/02/12 02:25:17;;;;;;;30.60;16.70;;;;;;;3.44;95.77;99934.93;435518;1253;99109;-39
2023/02/12 02:35:24;;;;;;;33.90;15.90;;;;;;;3.38;95.97;99952.55;435546;1250;110481;-39
2023/02/12 02:45:38;;;;;;;32.10;17.80;;;;;;;3.36;96.08;99957.52;435455;1254;107356;-39
2023/02/12 02:55:49;;;;;;;27.40;15.10;;;;;;;3.35;96.09;99966.38;435373;1254;99220;-38
2023/02/12 03:05:59;;;;;;;34.40;16.00;;;;;;;3.32;96.11;99984.23;435532;1254;107919;-39
2023/02/12 03:16:06;;;;;;;25.00;14.30;;;;;;;3.29;96.17;99994.66;435454;1250;98831;-39
2023/02/12 03:26:17;;;;;;;28.20;14.90;;;;;;;3.22;96.23;100007.51;435011;1263;532920;-38
2023/02/12 03:36:25;;;;;;;27.40;14.30;;;;;;;3.20;96.16;100038.54;435427;1253;107731;-37
2023/02/12 03:46:35;;;;;;;28.00;15.60;;;;;;;3.16;95.98;100053.98;436725;1255;98518;-40
2023/02/12 04:06:54;;;;;;;17.30;10.70;;;;;;;3.05;96.04;100094.29;435560;1253;97994;-39
2023/02/12 04:27:35;;;;;;;13.30;6.80;;;;;;;2.61;95.77;100122.04;435554;1253;109982;-39
2023/02/12 04:37:45;;;;;;;21.80;8.80;;;;;;;2.35;95.38;100143.85;435641;1254;97982;-38
2023/02/12 04:47:53;;;;;;;11.00;5.50;;;;;;;2.23;95.35;100166.70;435544;1254;106522;-38
2023/02/12 04:58:00;;;;;;;10.50;5.40;;;;;;;2.01;95.18;100188.15;435552;1263;99234;-39
2023/02/12 05:08:08;;;;;;;25.60;9.60;;;;;;;1.65;94.92;100207.89;435621;1253;110896;-39
2023/02/12 05:18:15;;;;;;;7.30;4.00;;;;;;;1.39;94.64;100232.21;435659;1254;108435;-39
2023/02/12 05:28:22;;;;;;;5.50;3.50;;;;;;;1.32;94.56;100248.69;435595;1251;99244;-39
2023/02/12 05:38:29;;;;;;;5.50;2.60;;;;;;;1.28;94.27;100261.20;435500;1251;111209;-39
2023/02/12 05:48:37;;;;;;;9.10;5.10;;;;;;;1.11;94.20;100280.11;435596;1254;108215;-38
2023/02/12 05:58:46;;;;;;;4.00;2.40;;;;;;;0.82;93.96;100298.38;435669;1253;116072;-40
2023/02/12 06:08:52;;;;;;;;;;;;;;;0.62;93.74;100317.16;435555;1253;107676;-40
2023/02/12 06:19:01;;;;;;;6.50;2.50;;;;;;;0.60;93.74;100338.52;435570;1251;98369;-39
2023/02/12 06:29:08;;;;;;;6.20;3.60;;;;;;;0.65;93.75;100342.09;435563;1253;110568;-40
2023/02/12 06:39:17;;;;;;;11.40;4.30;;;;;;;0.50;93.54;100356.73;435713;1251;107489;-40
2023/02/12 06:49:25;;;;;;;4.60;1.80;;;;;;;0.40;93.24;100373.45;435735;1251;99237;-40
2023/02/12 06:59:32;;;;;;;3.00;1.50;;;;;;;0.43;92.93;100386.43;435612;1252;107460;-40
2023/02/12 07:09:39;;;;;;;8.30;4.30;;;;;;;0.59;93.02;100399.31;435652;1254;99460;-41
2023/02/12 07:19:47;;;;;;;3.70;3.30;;;;;;;0.77;93.08;100408.02;435810;1253;115475;-40
2023/02/12 07:29:54;;;;;;;7.80;4.50;;;;;;;0.79;92.65;100410.08;435857;1253;107717;-40
2023/02/12 07:50:10;;;;;;;5.30;3.10;;;;;;;0.93;92.30;100436.55;435695;1254;112036;-40
2023/02/12 08:00:18;;;;;;;9.60;4.10;;;;;;;1.08;92.11;100443.80;435596;1253;107611;-40
2023/02/12 08:10:26;;;;;;;5.20;4.00;;;;;;;1.19;92.09;100447.57;435760;1254;99240;-39
2023/02/12 08:20:35;;;;;;;6.80;5.20;;;;;;;1.27;91.72;100453.42;436465;1249;111244;-39
2023/02/12 08:30:42;;;;;;;6.00;4.30;;;;;;;1.31;91.24;100461.05;435754;1254;107403;-39
2023/02/12 08:40:50;;;;;;;6.40;2.80;;;;;;;1.40;91.04;100476.45;435662;1249;99218;-40
2023/02/12 08:51:03;;;;;;;6.60;4.30;;;;;;;1.64;90.90;100480.20;439191;1251;110848;-40
2023/02/12 09:01:11;;;;;;;7.10;4.70;;;;;;;1.77;90.82;100480.55;438797;1254;107335;-40
2023/02/12 09:21:28;;;;;;;9.40;5.90;;;;;;;1.90;90.16;100493.54;439827;1254;111267;-40
2023/02/12 09:31:35;;;;;;;6.10;2.80;;;;;;;1.78;89.55;100510.86;438460;1249;107760;-39
2023/02/12 09:41:59;;;;;;;8.70;5.30;;;;;;;1.85;89.35;100520.35;439724;1253;98709;-39
2023/02/12 09:52:06;;;;;;;13.60;6.10;;;;;;;2.07;89.38;100535.08;439021;1249;111865;-39
2023/02/12 10:02:12;;;;;;;6.70;5.60;;;;;;;2.86;89.82;100539.08;439651;1250;107666;-39
2023/02/12 10:12:18;;;;;;;6.00;3.20;;;;;;;3.68;89.62;100534.71;438633;1251;97932;-41
2023/02/12 10:22:30;;;;;;;3.90;3.20;;;;;;;4.02;88.24;100523.08;438424;1253;112906;-40
2023/02/12 10:32:38;;;;;;;10.70;6.40;;;;;;;4.14;87.98;100523.90;438726;1249;109273;-40
2023/02/12 10:42:48;;;;;;;9.80;7.20;;;;;;;4.25;87.37;100536.27;439029;1252;99194;-40
2023/02/12 10:52:54;;;;;;;13.90;7.20;;;;;;;4.06;85.97;100527.05;439917;1250;110717;-49
2023/02/12 11:13:24;;;;;;;12.90;8.60;;;;;;;4.10;86.07;100509.61;439147;1252;98755;-39
2023/02/12 11:23:33;;;;;;;12.70;7.30;;;;;;;4.17;85.20;100509.65;440224;1253;98078;-39
2023/02/12 11:33:40;;;;;;;13.50;8.30;;;;;;;4.06;85.02;100516.20;440087;1251;108473;-40
2023/02/12 11:43:47;;;;;;;14.10;8.80;;;;;;;4.21;84.96;100514.64;439262;1252;99057;-40
2023/02/12 11:54:00;;;;;;;17.70;9.70;;;;;;;4.32;84.50;100509.80;436674;1253;112648;-39
2023/02/12 12:04:12;;;;;;;7.80;5.90;;;;;;;4.18;83.81;100507.77;436140;1253;107520;-39
2023/02/12 12:14:18;;;;;;;14.60;8.60;;;;;;;4.23;83.87;100517.71;436068;1251;98810;-39
2023/02/12 12:24:31;;;;;;;33.20;15.90;;;;;;;4.34;83.77;100514.88;436023;1252;107930;-40
2023/02/12 12:34:38;;;;;;;11.50;6.90;;;;;;;4.44;83.05;100517.95;435969;1251;98412;-39
2023/02/12 12:44:48;;;;;;;5.80;4.10;;;;;;;4.28;82.09;100519.41;435949;1253;111592;-39
2023/02/12 13:05:29;;;;;;;11.70;7.30;;;;;;;4.08;80.30;100512.00;436085;1248;98133;-40
2023/02/12 13:15:35;;;;;;;8.60;6.20;;;;;;;3.70;80.79;100508.66;435638;1250;111919;-39
2023/02/12 13:25:46;;;;;;;9.60;6.10;;;;;;;3.71;80.63;100510.16;435337;1254;107122;-39
2023/02/12 13:35:52;;;;;;;9.60;6.50;;;;;;;3.82;80.78;100516.36;435437;1253;98016;-39
2023/02/12 13:45:57;;;;;;;14.90;7.60;;;;;;;3.60;80.96;100524.29;435595;1249;110796;-39
2023/02/12 13:56:07;;;;;;;18.10;8.70;;;;;;;3.42;81.10;100527.81;437314;1249;107331;-40
2023/02/12 14:16:20;;;;;;;13.80;6.30;;;;;;;3.46;81.75;100533.98;438407;1252;108900;-40
2023/02/12 14:26:36;;;;;;;22.40;10.10;;;;;;;3.44;81.85;100539.70;437801;1251;119439;-39
2023/02/12 14:36:48;;;;;;;20.00;9.30;;;;;;;3.33;82.15;100539.65;435551;1254;111187;-39
2023/02/12 14:46:57;;;;;;;19.70;11.40;;;;;;;3.28;82.19;100541.83;436154;1254;108079;-40
2023/02/12 14:57:07;;;;;;;19.40;10.80;;;;;;;3.24;82.29;100542.54;436583;1249;97991;-39
2023/02/12 15:07:22;;;;;;;24.30;14.40;;;;;;;3.30;82.53;100540.08;435629;1254;111742;-39
2023/02/12 15:17:32;;;;;;;47.90;24.80;;;;;;;3.38;82.83;100535.84;436711;1253;108656;-40
2023/02/12 15:27:42;;;;;;;45.50;20.90;;;;;;;3.26;82.99;100537.59;436294;1253;415422;-39
2023/02/12 15:37:50;;;;;;;49.00;25.50;;;;;;;3.13;83.05;100541.38;437106;1250;111280;-40
2023/02/12 15:47:57;;;;;;;62.40;26.00;;;;;;;2.90;83.09;100540.11;437360;1249;107818;-40
2023/02/12 15:58:05;;;;;;;44.90;23.20;;;;;;;2.59;83.23;100539.15;436254;1253;99238;-39
2023/02/12 16:08:14;;;;;;;35.30;18.90;;;;;;;2.43;83.38;100544.54;436483;1251;110925;-40
2023/02/12 16:18:28;;;;;;;53.30;26.30;;;;;;;2.42;83.59;100546.16;437708;1249;109341;-39
2023/02/12 16:28:36;;;;;;;55.90;29.30;;;;;;;2.51;83.96;100553.41;435474;1249;99406;-40
2023/02/12 16:38:42;;;;;;;81.00;38.60;;;;;;;2.43;84.00;100559.63;436353;1254;106863;-40
2023/02/12 16:58:59;;;;;;;94.80;49.70;;;;;;;2.32;84.51;100554.64;436645;1249;98764;-40
2023/02/12 17:09:06;;;;;;;94.50;46.30;;;;;;;2.28;84.69;100560.20;435365;1255;110872;-39
2023/02/12 17:19:13;;;;;;;54.30;28.50;;;;;;;2.32;84.84;100563.56;436604;1253;108662;-40
2023/02/12 17:29:24;;;;;;;52.20;27.90;;;;;;;2.45;84.96;100564.91;435834;1250;97920;-39
2023/02/12 17:39:32;;;;;;;78.50;37.50;;;;;;;2.60;85.16;100563.10;438220;1253;110214;-39
2023/02/12 17:49:40;;;;;;;60.00;28.90;;;;;;;2.69;85.32;100563.67;436210;1253;107613;-40
2023/02/12 17:59:47;;;;;;;82.50;38.90;;;;;;;2.69;85.41;100553.63;436456;1252;99132;-40
2023/02/12 18:09:55;;;;;;;64.20;30.40;;;;;;;2.56;85.40;100548.13;435943;1253;111092;-39
2023/02/12 18:20:03;;;;;;;90.00;36.90;;;;;;;2.31;85.28;100542.11;436760;1253;109010;-39
2023/02/12 18:30:11;;;;;;;82.50;46.40;;;;;;;2.13;85.29;100544.80;437383;1249;99240;-39
2023/02/12 18:40:19;;;;;;;92.90;49.50;;;;;;;2.04;85.33;100550.44;436235;1254;111475;-39
2023/02/12 18:50:26;;;;;;;79.80;48.00;;;;;;;2.09;85.60;100562.52;437366;1255;108329;-40
2023/02/12 19:00:34;;;;;;;133.70;62.00;;;;;;;2.14;85.82;100558.29;436293;1254;99221;-39
2023/02/12 19:10:41;;;;;;;137.30;63.00;;;;;;;2.09;85.90;100551.23;435601;1250;111475;-39
2023/02/12 19:20:48;;;;;;;122.40;54.10;;;;;;;2.03;86.17;100547.36;435694;1253;105943;-40
2023/02/12 19:30:56;;;;;;;69.60;40.80;;;;;;;2.07;86.41;100556.23;435720;1251;99241;-39
2023/02/12 19:41:08;;;;;;;61.10;35.50;;;;;;;2.21;86.44;100546.79;435661;1253;110887;-40
2023/02/12 19:51:13;;;;;;;63.60;34.20;;;;;;;2.35;86.66;100545.55;435749;1251;107176;-39
2023/02/12 20:01:21;;;;;;;65.10;33.80;;;;;;;2.41;86.64;100546.21;435677;1251;99214;-42
2023/02/12 20:11:31;;;;;;;82.40;43.10;;;;;;;2.45;86.79;100540.64;435718;1253;107528;-40
2023/02/12 20:21:39;;;;;;;90.40;39.90;;;;;;;2.38;86.97;100533.27;436664;1250;98449;-39
2023/02/12 20:31:45;;;;;;;85.90;40.20;;;;;;;2.36;87.19;100524.20;436174;1249;111245;-40
2023/02/12 20:41:53;;;;;;;61.50;31.20;;;;;;;2.44;87.22;100526.73;435408;1249;107199;-39
2023/02/12 20:52:01;;;;;;;60.70;27.90;;;;;;;2.58;87.50;100528.48;435287;1254;98002;-39
2023/02/12 21:02:10;;;;;;;53.80;29.50;;;;;;;2.72;87.53;100520.07;435409;1253;111936;-41
2023/02/12 21:12:18;;;;;;;84.20;36.70;;;;;;;2.82;87.59;100518.52;435362;1255;107818;-39
2023/02/12 21:22:25;;;;;;;104.80;49.80;;;;;;;2.81;87.66;100536.55;435473;1254;99343;-39
2023/02/12 21:32:33;;;;;;;163.20;71.30;;;;;;;2.67;87.56;100530.97;435308;1255;108790;-39
2023/02/12 21:42:40;;;;;;;128.30;59.70;;;;;;;2.48;87.67;100517.67;435510;1255;99224;-39
2023/02/12 21:52:47;;;;;;;91.10;50.70;;;;;;;2.42;87.79;100520.02;435399;1255;110311;-48
2023/02/12 22:02:54;;;;;;;97.80;49.00;;;;;;;2.48;87.79;100517.61;435330;1249;108360;-40
2023/02/12 22:13:02;;;;;;;76.40;41.40;;;;;;;2.56;87.91;100519.02;435336;1250;99112;-40
2023/02/12 22:33:16;;;;;;;81.50;42.60;;;;;;;2.64;88.20;100490.85;435625;1253;99221;-40
2023/02/12 22:43:24;;;;;;;91.60;41.50;;;;;;;2.59;88.43;100509.69;435713;1253;111503;-39
2023/02/12 22:53:31;;;;;;;60.70;35.30;;;;;;;2.54;88.21;100518.52;435754;1250;109752;-39
2023/02/12 23:03:38;;;;;;;85.40;42.20;;;;;;;2.60;88.46;100526.52;435624;1253;97985;-39
2023/02/12 23:13:46;;;;;;;64.60;33.40;;;;;;;2.70;88.46;100523.77;435677;1253;112652;-39
2023/02/12 23:23:53;;;;;;;66.40;32.80;;;;;;;2.86;88.70;100516.95;435272;1256;108432;-39
2023/02/12 23:34:01;;;;;;;93.20;43.60;;;;;;;2.77;88.60;100517.19;435417;1255;99247;-39
2023/02/12 23:44:09;;;;;;;83.80;39.70;;;;;;;2.67;88.81;100522.61;435309;1255;108485;-39
2023/02/12 23:54:16;;;;;;;84.20;39.80;;;;;;;2.60;88.87;100513.46;435477;1255;99093;-40
